sensor_id;sensor_type;location;lat;lon;timestamp;temperature;humidity
52036;DHT22;38046;49.448;32.074;2022-10-01T00:01:42;18.00;98.30
52036;DHT22;38046;49.448;32.074;2022-10-01T00:04:08;18.00;98.40
52036;DHT22;38046;49.448;32.074;2022-10-01T00:06:33;18.00;98.40
52036;DHT22;38046;49.448;32.074;2022-10-01T00:08:59;18.00;98.40
52036;DHT22;38046;49.448;32.074;2022-10-01T00:11:25;18.00;98.40
52036;DHT22;38046;49.448;32.074;2022-10-01T00:13:52;17.90;98.40
52036;DHT22;38046;49.448;32.074;2022-10-01T00:16:23;18.00;98.40
52036;DHT22;38046;49.448;32.074;2022-10-01T00:18:50;18.00;98.40
52036;DHT22;38046;49.448;32.074;2022-10-01T00:21:23;18.00;98.40
52036;DHT22;38046;49.448;32.074;2022-10-01T00:24:01;17.90;98.40
52036;DHT22;38046;49.448;32.074;2022-10-01T00:26:31;17.90;98.30
52036;DHT22;38046;49.448;32.074;2022-10-01T00:28:59;17.90;98.50
52036;DHT22;38046;49.448;32.074;2022-10-01T00:31:25;17.90;98.50
52036;DHT22;38046;49.448;32.074;2022-10-01T00:33:52;17.80;98.60
52036;DHT22;38046;49.448;32.074;2022-10-01T00:36:18;17.80;98.50
52036;DHT22;38046;49.448;32.074;2022-10-01T00:38:44;17.90;98.50
52036;DHT22;38046;49.448;32.074;2022-10-01T00:41:12;17.80;98.40
52036;DHT22;38046;49.448;32.074;2022-10-01T00:43:42;17.80;98.40
52036;DHT22;38046;49.448;32.074;2022-10-01T00:46:27;17.80;98.40
52036;DHT22;38046;49.448;32.074;2022-10-01T00:48:55;17.80;98.30
52036;DHT22;38046;49.448;32.074;2022-10-01T00:51:24;17.80;98.60
52036;DHT22;38046;49.448;32.074;2022-10-01T00:53:50;17.80;98.60
52036;DHT22;38046;49.448;32.074;2022-10-01T00:56:16;17.80;98.50
52036;DHT22;38046;49.448;32.074;2022-10-01T00:58:42;17.80;98.50
52036;DHT22;38046;49.448;32.074;2022-10-01T01:01:08;17.70;98.40
52036;DHT22;38046;49.448;32.074;2022-10-01T01:03:34;17.80;98.30
52036;DHT22;38046;49.448;32.074;2022-10-01T01:06:00;17.70;98.30
52036;DHT22;38046;49.448;32.074;2022-10-01T01:08:25;17.70;98.30
52036;DHT22;38046;49.448;32.074;2022-10-01T01:13:47;17.70;98.20
52036;DHT22;38046;49.448;32.074;2022-10-01T01:16:25;17.60;98.00
52036;DHT22;38046;49.448;32.074;2022-10-01T01:19:16;17.60;98.20
52036;DHT22;38046;49.448;32.074;2022-10-01T01:21:51;17.60;98.20
52036;DHT22;38046;49.448;32.074;2022-10-01T01:24:50;17.50;98.30
52036;DHT22;38046;49.448;32.074;2022-10-01T01:27:25;17.60;98.10
52036;DHT22;38046;49.448;32.074;2022-10-01T01:35:27;17.50;97.90
52036;DHT22;38046;49.448;32.074;2022-10-01T01:38:04;17.50;97.80
52036;DHT22;38046;49.448;32.074;2022-10-01T01:40:34;17.50;97.80
52036;DHT22;38046;49.448;32.074;2022-10-01T01:43:03;17.40;97.70
52036;DHT22;38046;49.448;32.074;2022-10-01T01:45:31;17.40;97.60
52036;DHT22;38046;49.448;32.074;2022-10-01T01:48:00;17.40;97.50
52036;DHT22;38046;49.448;32.074;2022-10-01T01:50:30;17.30;97.30
52036;DHT22;38046;49.448;32.074;2022-10-01T01:52:59;17.30;97.20
52036;DHT22;38046;49.448;32.074;2022-10-01T01:55:27;17.30;97.20
52036;DHT22;38046;49.448;32.074;2022-10-01T01:57:55;17.30;97.20
52036;DHT22;38046;49.448;32.074;2022-10-01T02:00:21;17.30;97.30
52036;DHT22;38046;49.448;32.074;2022-10-01T02:02:50;17.30;97.70
52036;DHT22;38046;49.448;32.074;2022-10-01T02:05:25;17.30;97.40
52036;DHT22;38046;49.448;32.074;2022-10-01T02:16:34;17.20;97.00
52036;DHT22;38046;49.448;32.074;2022-10-01T02:19:18;17.20;96.80
52036;DHT22;38046;49.448;32.074;2022-10-01T02:21:55;17.10;96.60
52036;DHT22;38046;49.448;32.074;2022-10-01T02:27:01;17.00;96.60
52036;DHT22;38046;49.448;32.074;2022-10-01T02:29:28;17.00;96.80
52036;DHT22;38046;49.448;32.074;2022-10-01T02:31:55;17.00;96.90
52036;DHT22;38046;49.448;32.074;2022-10-01T02:34:24;17.00;97.00
52036;DHT22;38046;49.448;32.074;2022-10-01T02:36:53;17.00;97.00
52036;DHT22;38046;49.448;32.074;2022-10-01T02:39:21;17.00;97.00
52036;DHT22;38046;49.448;32.074;2022-10-01T02:41:50;17.00;97.00
52036;DHT22;38046;49.448;32.074;2022-10-01T02:44:20;16.90;96.90
52036;DHT22;38046;49.448;32.074;2022-10-01T02:46:58;17.00;97.00
52036;DHT22;38046;49.448;32.074;2022-10-01T02:49:26;17.00;96.90
52036;DHT22;38046;49.448;32.074;2022-10-01T02:52:01;17.00;97.40
52036;DHT22;38046;49.448;32.074;2022-10-01T02:54:41;17.00;97.10
52036;DHT22;38046;49.448;32.074;2022-10-01T02:57:07;16.90;96.90
52036;DHT22;38046;49.448;32.074;2022-10-01T02:59:49;16.90;96.80
52036;DHT22;38046;49.448;32.074;2022-10-01T03:02:16;17.00;96.70
52036;DHT22;38046;49.448;32.074;2022-10-01T03:04:41;17.00;96.60
52036;DHT22;38046;49.448;32.074;2022-10-01T03:07:07;16.90;96.50
52036;DHT22;38046;49.448;32.074;2022-10-01T03:09:33;16.90;96.50
52036;DHT22;38046;49.448;32.074;2022-10-01T03:12:01;16.90;96.50
52036;DHT22;38046;49.448;32.074;2022-10-01T03:14:26;17.00;96.70
52036;DHT22;38046;49.448;32.074;2022-10-01T03:16:53;17.00;96.70
52036;DHT22;38046;49.448;32.074;2022-10-01T03:19:19;17.00;96.80
52036;DHT22;38046;49.448;32.074;2022-10-01T03:21:45;17.00;96.80
52036;DHT22;38046;49.448;32.074;2022-10-01T03:24:10;16.90;96.80
52036;DHT22;38046;49.448;32.074;2022-10-01T03:26:36;16.90;96.80
52036;DHT22;38046;49.448;32.074;2022-10-01T03:29:02;16.90;97.00
52036;DHT22;38046;49.448;32.074;2022-10-01T03:31:28;16.90;97.20
52036;DHT22;38046;49.448;32.074;2022-10-01T03:33:54;16.90;97.10
52036;DHT22;38046;49.448;32.074;2022-10-01T03:36:20;16.90;97.20
52036;DHT22;38046;49.448;32.074;2022-10-01T03:38:46;17.00;97.40
52036;DHT22;38046;49.448;32.074;2022-10-01T03:41:11;16.90;97.40
52036;DHT22;38046;49.448;32.074;2022-10-01T03:43:37;17.00;97.40
52036;DHT22;38046;49.448;32.074;2022-10-01T03:46:02;17.00;97.50
52036;DHT22;38046;49.448;32.074;2022-10-01T03:48:28;17.00;97.50
52036;DHT22;38046;49.448;32.074;2022-10-01T03:50:55;17.00;97.40
52036;DHT22;38046;49.448;32.074;2022-10-01T03:53:22;17.00;97.40
52036;DHT22;38046;49.448;32.074;2022-10-01T03:55:48;17.00;97.50
52036;DHT22;38046;49.448;32.074;2022-10-01T03:58:14;17.00;97.60
52036;DHT22;38046;49.448;32.074;2022-10-01T04:00:41;17.00;97.60
52036;DHT22;38046;49.448;32.074;2022-10-01T04:03:08;17.00;97.60
52036;DHT22;38046;49.448;32.074;2022-10-01T04:05:34;17.00;97.70
52036;DHT22;38046;49.448;32.074;2022-10-01T04:07:59;17.00;97.70
52036;DHT22;38046;49.448;32.074;2022-10-01T04:10:25;17.00;97.80
52036;DHT22;38046;49.448;32.074;2022-10-01T04:12:51;17.00;97.80
52036;DHT22;38046;49.448;32.074;2022-10-01T04:15:17;17.00;97.80
52036;DHT22;38046;49.448;32.074;2022-10-01T04:17:42;17.10;97.80
52036;DHT22;38046;49.448;32.074;2022-10-01T04:20:08;17.10;97.90
52036;DHT22;38046;49.448;32.074;2022-10-01T04:22:40;17.10;97.90
52036;DHT22;38046;49.448;32.074;2022-10-01T04:25:10;17.10;97.90
52036;DHT22;38046;49.448;32.074;2022-10-01T04:27:40;17.20;98.00
52036;DHT22;38046;49.448;32.074;2022-10-01T04:30:07;17.20;98.00
52036;DHT22;38046;49.448;32.074;2022-10-01T04:32:34;17.20;98.00
52036;DHT22;38046;49.448;32.074;2022-10-01T04:34:59;17.20;98.00
52036;DHT22;38046;49.448;32.074;2022-10-01T04:37:27;17.30;98.10
52036;DHT22;38046;49.448;32.074;2022-10-01T04:39:53;17.30;97.90
52036;DHT22;38046;49.448;32.074;2022-10-01T04:42:20;17.30;97.80
52036;DHT22;38046;49.448;32.074;2022-10-01T04:44:46;17.30;97.90
52036;DHT22;38046;49.448;32.074;2022-10-01T04:47:12;17.40;98.00
52036;DHT22;38046;49.448;32.074;2022-10-01T04:49:37;17.40;98.00
52036;DHT22;38046;49.448;32.074;2022-10-01T04:52:04;17.40;98.00
52036;DHT22;38046;49.448;32.074;2022-10-01T04:54:29;17.50;98.00
52036;DHT22;38046;49.448;32.074;2022-10-01T04:56:55;17.50;98.10
52036;DHT22;38046;49.448;32.074;2022-10-01T04:59:22;17.60;98.10
52036;DHT22;38046;49.448;32.074;2022-10-01T05:01:48;17.60;98.20
52036;DHT22;38046;49.448;32.074;2022-10-01T05:04:14;17.60;98.10
52036;DHT22;38046;49.448;32.074;2022-10-01T05:06:39;17.60;98.00
52036;DHT22;38046;49.448;32.074;2022-10-01T05:09:06;17.70;97.70
52036;DHT22;38046;49.448;32.074;2022-10-01T05:11:31;17.70;97.40
52036;DHT22;38046;49.448;32.074;2022-10-01T05:13:59;17.80;97.20
52036;DHT22;38046;49.448;32.074;2022-10-01T05:16:25;17.80;97.20
52036;DHT22;38046;49.448;32.074;2022-10-01T05:18:51;17.90;97.30
52036;DHT22;38046;49.448;32.074;2022-10-01T05:21:16;17.90;97.20
52036;DHT22;38046;49.448;32.074;2022-10-01T05:23:42;18.00;97.00
52036;DHT22;38046;49.448;32.074;2022-10-01T05:26:08;18.00;96.90
52036;DHT22;38046;49.448;32.074;2022-10-01T05:28:34;18.10;96.90
52036;DHT22;38046;49.448;32.074;2022-10-01T05:31:02;18.10;96.80
52036;DHT22;38046;49.448;32.074;2022-10-01T05:33:28;18.20;96.50
52036;DHT22;38046;49.448;32.074;2022-10-01T05:35:55;18.20;96.40
52036;DHT22;38046;49.448;32.074;2022-10-01T05:38:21;18.30;96.20
52036;DHT22;38046;49.448;32.074;2022-10-01T05:40:47;18.40;96.10
52036;DHT22;38046;49.448;32.074;2022-10-01T05:43:13;18.40;96.00
52036;DHT22;38046;49.448;32.074;2022-10-01T05:45:39;18.40;95.60
52036;DHT22;38046;49.448;32.074;2022-10-01T05:48:06;18.40;95.40
52036;DHT22;38046;49.448;32.074;2022-10-01T05:50:35;18.50;95.30
52036;DHT22;38046;49.448;32.074;2022-10-01T05:53:03;18.50;95.30
52036;DHT22;38046;49.448;32.074;2022-10-01T05:55:30;18.50;95.80
52036;DHT22;38046;49.448;32.074;2022-10-01T05:58:07;18.60;96.20
52036;DHT22;38046;49.448;32.074;2022-10-01T06:00:35;18.80;96.60
52036;DHT22;38046;49.448;32.074;2022-10-01T06:03:02;19.10;96.00
52036;DHT22;38046;49.448;32.074;2022-10-01T06:05:28;19.40;95.40
52036;DHT22;38046;49.448;32.074;2022-10-01T06:07:55;19.60;94.70
52036;DHT22;38046;49.448;32.074;2022-10-01T06:10:21;19.80;94.90
52036;DHT22;38046;49.448;32.074;2022-10-01T06:12:47;20.10;94.30
52036;DHT22;38046;49.448;32.074;2022-10-01T06:15:14;20.30;93.50
52036;DHT22;38046;49.448;32.074;2022-10-01T06:17:40;20.50;92.50
52036;DHT22;38046;49.448;32.074;2022-10-01T06:20:15;20.60;91.70
52036;DHT22;38046;49.448;32.074;2022-10-01T06:22:42;20.60;91.50
52036;DHT22;38046;49.448;32.074;2022-10-01T06:25:11;20.60;91.20
52036;DHT22;38046;49.448;32.074;2022-10-01T06:27:40;20.60;91.20
52036;DHT22;38046;49.448;32.074;2022-10-01T06:30:06;20.50;91.10
52036;DHT22;38046;49.448;32.074;2022-10-01T06:32:33;20.50;91.30
52036;DHT22;38046;49.448;32.074;2022-10-01T06:34:58;20.40;91.40
52036;DHT22;38046;49.448;32.074;2022-10-01T06:37:24;20.30;91.50
52036;DHT22;38046;49.448;32.074;2022-10-01T06:39:50;20.30;91.70
52036;DHT22;38046;49.448;32.074;2022-10-01T06:42:15;20.30;91.90
52036;DHT22;38046;49.448;32.074;2022-10-01T06:44:41;20.30;91.90
52036;DHT22;38046;49.448;32.074;2022-10-01T06:47:07;20.20;92.00
52036;DHT22;38046;49.448;32.074;2022-10-01T06:49:33;20.20;92.10
52036;DHT22;38046;49.448;32.074;2022-10-01T06:51:59;20.20;92.10
52036;DHT22;38046;49.448;32.074;2022-10-01T06:54:44;20.20;92.20
52036;DHT22;38046;49.448;32.074;2022-10-01T06:57:10;20.20;92.30
52036;DHT22;38046;49.448;32.074;2022-10-01T06:59:35;20.20;92.20
52036;DHT22;38046;49.448;32.074;2022-10-01T07:02:02;20.20;92.10
52036;DHT22;38046;49.448;32.074;2022-10-01T07:04:28;20.20;92.00
52036;DHT22;38046;49.448;32.074;2022-10-01T07:06:54;20.20;91.80
52036;DHT22;38046;49.448;32.074;2022-10-01T07:09:25;20.20;91.80
52036;DHT22;38046;49.448;32.074;2022-10-01T07:11:51;20.20;91.70
52036;DHT22;38046;49.448;32.074;2022-10-01T07:14:18;20.20;91.40
52036;DHT22;38046;49.448;32.074;2022-10-01T07:16:44;20.20;91.10
52036;DHT22;38046;49.448;32.074;2022-10-01T07:19:10;20.20;91.10
52036;DHT22;38046;49.448;32.074;2022-10-01T07:21:36;20.20;91.00
52036;DHT22;38046;49.448;32.074;2022-10-01T07:24:02;20.20;90.90
52036;DHT22;38046;49.448;32.074;2022-10-01T07:26:28;20.20;90.80
52036;DHT22;38046;49.448;32.074;2022-10-01T07:28:54;20.20;90.30
52036;DHT22;38046;49.448;32.074;2022-10-01T07:31:20;20.20;90.20
52036;DHT22;38046;49.448;32.074;2022-10-01T07:33:48;20.20;90.10
52036;DHT22;38046;49.448;32.074;2022-10-01T07:36:14;20.20;90.10
52036;DHT22;38046;49.448;32.074;2022-10-01T07:38:40;20.30;90.00
52036;DHT22;38046;49.448;32.074;2022-10-01T07:41:08;20.30;89.60
52036;DHT22;38046;49.448;32.074;2022-10-01T07:43:34;20.30;89.40
52036;DHT22;38046;49.448;32.074;2022-10-01T07:46:01;20.40;89.10
52036;DHT22;38046;49.448;32.074;2022-10-01T07:48:27;20.40;89.60
52036;DHT22;38046;49.448;32.074;2022-10-01T07:50:53;20.40;88.60
52036;DHT22;38046;49.448;32.074;2022-10-01T07:53:19;20.40;88.30
52036;DHT22;38046;49.448;32.074;2022-10-01T07:55:45;20.50;88.20
52036;DHT22;38046;49.448;32.074;2022-10-01T07:58:11;20.50;88.00
52036;DHT22;38046;49.448;32.074;2022-10-01T08:00:37;20.50;87.70
52036;DHT22;38046;49.448;32.074;2022-10-01T08:03:03;20.50;87.40
52036;DHT22;38046;49.448;32.074;2022-10-01T08:05:33;20.50;87.40
52036;DHT22;38046;49.448;32.074;2022-10-01T08:08:01;20.50;87.40
52036;DHT22;38046;49.448;32.074;2022-10-01T08:10:28;20.50;87.50
52036;DHT22;38046;49.448;32.074;2022-10-01T08:13:02;20.50;87.50
52036;DHT22;38046;49.448;32.074;2022-10-01T08:15:33;20.50;87.40
52036;DHT22;38046;49.448;32.074;2022-10-01T08:18:02;20.50;87.40
52036;DHT22;38046;49.448;32.074;2022-10-01T08:20:28;20.60;87.20
52036;DHT22;38046;49.448;32.074;2022-10-01T08:23:00;20.60;87.20
52036;DHT22;38046;49.448;32.074;2022-10-01T08:25:26;20.60;87.20
52036;DHT22;38046;49.448;32.074;2022-10-01T08:27:51;20.70;87.00
52036;DHT22;38046;49.448;32.074;2022-10-01T08:30:17;20.70;86.80
52036;DHT22;38046;49.448;32.074;2022-10-01T08:32:43;20.80;86.60
52036;DHT22;38046;49.448;32.074;2022-10-01T08:35:08;20.80;86.50
52036;DHT22;38046;49.448;32.074;2022-10-01T08:37:34;20.80;86.40
52036;DHT22;38046;49.448;32.074;2022-10-01T08:40:00;20.90;86.50
52036;DHT22;38046;49.448;32.074;2022-10-01T08:42:53;20.90;86.40
52036;DHT22;38046;49.448;32.074;2022-10-01T08:45:28;20.90;86.20
52036;DHT22;38046;49.448;32.074;2022-10-01T08:50:58;20.90;85.80
52036;DHT22;38046;49.448;32.074;2022-10-01T08:53:36;20.80;85.80
52036;DHT22;38046;49.448;32.074;2022-10-01T08:56:07;20.80;85.70
52036;DHT22;38046;49.448;32.074;2022-10-01T08:58:43;20.80;85.70
52036;DHT22;38046;49.448;32.074;2022-10-01T09:01:11;20.80;86.00
52036;DHT22;38046;49.448;32.074;2022-10-01T09:03:38;20.80;86.10
52036;DHT22;38046;49.448;32.074;2022-10-01T09:06:21;20.80;86.30
52036;DHT22;38046;49.448;32.074;2022-10-01T09:19:54;21.10;85.50
52036;DHT22;38046;49.448;32.074;2022-10-01T09:25:04;21.10;85.40
52036;DHT22;38046;49.448;32.074;2022-10-01T09:27:36;21.10;85.20
52036;DHT22;38046;49.448;32.074;2022-10-01T09:30:14;21.10;85.20
52036;DHT22;38046;49.448;32.074;2022-10-01T09:32:42;21.10;85.00
52036;DHT22;38046;49.448;32.074;2022-10-01T09:38:12;21.00;84.90
52036;DHT22;38046;49.448;32.074;2022-10-01T09:43:15;21.00;85.00
52036;DHT22;38046;49.448;32.074;2022-10-01T09:45:44;21.00;85.00
52036;DHT22;38046;49.448;32.074;2022-10-01T09:51:16;20.90;84.90
52036;DHT22;38046;49.448;32.074;2022-10-01T09:56:29;20.80;85.00
52036;DHT22;38046;49.448;32.074;2022-10-01T09:59:01;20.80;85.00
52036;DHT22;38046;49.448;32.074;2022-10-01T10:01:42;20.80;85.20
52036;DHT22;38046;49.448;32.074;2022-10-01T10:04:09;20.80;85.30
52036;DHT22;38046;49.448;32.074;2022-10-01T10:06:36;20.80;85.40
52036;DHT22;38046;49.448;32.074;2022-10-01T10:09:03;20.80;85.50
52036;DHT22;38046;49.448;32.074;2022-10-01T10:11:30;20.80;85.50
52036;DHT22;38046;49.448;32.074;2022-10-01T10:14:10;20.70;85.60
52036;DHT22;38046;49.448;32.074;2022-10-01T10:16:43;20.70;85.60
52036;DHT22;38046;49.448;32.074;2022-10-01T10:19:20;20.70;85.60
52036;DHT22;38046;49.448;32.074;2022-10-01T10:22:12;20.70;85.70
52036;DHT22;38046;49.448;32.074;2022-10-01T10:24:43;20.70;85.50
52036;DHT22;38046;49.448;32.074;2022-10-01T10:27:28;20.70;85.70
52036;DHT22;38046;49.448;32.074;2022-10-01T10:30:14;20.70;85.60
52036;DHT22;38046;49.448;32.074;2022-10-01T10:32:41;20.70;85.70
52036;DHT22;38046;49.448;32.074;2022-10-01T10:35:10;20.70;85.80
52036;DHT22;38046;49.448;32.074;2022-10-01T10:37:44;20.70;85.90
52036;DHT22;38046;49.448;32.074;2022-10-01T10:40:23;20.70;85.80
52036;DHT22;38046;49.448;32.074;2022-10-01T10:42:51;20.60;85.70
52036;DHT22;38046;49.448;32.074;2022-10-01T10:45:30;20.60;85.90
52036;DHT22;38046;49.448;32.074;2022-10-01T10:47:57;20.60;86.10
52036;DHT22;38046;49.448;32.074;2022-10-01T10:50:33;20.60;86.40
52036;DHT22;38046;49.448;32.074;2022-10-01T10:53:20;20.60;86.30
52036;DHT22;38046;49.448;32.074;2022-10-01T10:55:57;20.60;86.10
52036;DHT22;38046;49.448;32.074;2022-10-01T10:58:28;20.60;86.00
52036;DHT22;38046;49.448;32.074;2022-10-01T11:00:57;20.70;86.10
52036;DHT22;38046;49.448;32.074;2022-10-01T11:03:26;20.70;86.00
52036;DHT22;38046;49.448;32.074;2022-10-01T11:05:57;20.70;86.00
52036;DHT22;38046;49.448;32.074;2022-10-01T11:08:25;20.70;85.90
52036;DHT22;38046;49.448;32.074;2022-10-01T11:11:16;20.70;85.80
52036;DHT22;38046;49.448;32.074;2022-10-01T11:22:09;20.80;85.20
52036;DHT22;38046;49.448;32.074;2022-10-01T11:28:04;20.80;84.60
52036;DHT22;38046;49.448;32.074;2022-10-01T11:36:36;21.00;84.40
52036;DHT22;38046;49.448;32.074;2022-10-01T11:39:14;21.00;84.30
52036;DHT22;38046;49.448;32.074;2022-10-01T11:44:38;21.00;84.20
52036;DHT22;38046;49.448;32.074;2022-10-01T11:47:43;21.10;84.00
52036;DHT22;38046;49.448;32.074;2022-10-01T11:50:19;21.10;83.80
52036;DHT22;38046;49.448;32.074;2022-10-01T11:53:14;21.20;83.40
52036;DHT22;38046;49.448;32.074;2022-10-01T11:55:53;21.30;82.60
52036;DHT22;38046;49.448;32.074;2022-10-01T11:58:52;21.40;83.00
52036;DHT22;38046;49.448;32.074;2022-10-01T12:01:32;21.40;81.60
52036;DHT22;38046;49.448;32.074;2022-10-01T12:04:14;21.50;81.40
52036;DHT22;38046;49.448;32.074;2022-10-01T12:07:32;21.60;80.90
52036;DHT22;38046;49.448;32.074;2022-10-01T12:09:59;21.60;80.60
52036;DHT22;38046;49.448;32.074;2022-10-01T12:15:17;21.80;79.70
52036;DHT22;38046;49.448;32.074;2022-10-01T12:17:48;21.80;79.30
52036;DHT22;38046;49.448;32.074;2022-10-01T12:20:39;21.90;78.80
52036;DHT22;38046;49.448;32.074;2022-10-01T12:23:12;22.00;78.40
52036;DHT22;38046;49.448;32.074;2022-10-01T12:28:23;22.00;77.30
52036;DHT22;38046;49.448;32.074;2022-10-01T12:30:59;22.10;77.00
52036;DHT22;38046;49.448;32.074;2022-10-01T12:33:50;22.20;76.80
52036;DHT22;38046;49.448;32.074;2022-10-01T12:44:48;22.30;75.80
52036;DHT22;38046;49.448;32.074;2022-10-01T13:09:14;22.60;74.20
52036;DHT22;38046;49.448;32.074;2022-10-01T13:14:26;22.50;73.90
52036;DHT22;38046;49.448;32.074;2022-10-01T13:17:08;22.50;73.90
52036;DHT22;38046;49.448;32.074;2022-10-01T13:19:57;22.40;73.80
52036;DHT22;38046;49.448;32.074;2022-10-01T13:22:43;22.40;73.60
52036;DHT22;38046;49.448;32.074;2022-10-01T13:28:17;22.30;73.80
52036;DHT22;38046;49.448;32.074;2022-10-01T13:31:11;22.20;73.70
52036;DHT22;38046;49.448;32.074;2022-10-01T13:33:39;22.20;74.20
52036;DHT22;38046;49.448;32.074;2022-10-01T13:36:06;22.10;74.20
52036;DHT22;38046;49.448;32.074;2022-10-01T13:38:43;22.10;74.30
52036;DHT22;38046;49.448;32.074;2022-10-01T13:44:10;22.00;74.40
52036;DHT22;38046;49.448;32.074;2022-10-01T13:46:59;22.00;74.50
52036;DHT22;38046;49.448;32.074;2022-10-01T13:49:29;21.90;74.50
52036;DHT22;38046;49.448;32.074;2022-10-01T13:51:56;22.00;74.80
52036;DHT22;38046;49.448;32.074;2022-10-01T13:54:37;22.00;74.80
52036;DHT22;38046;49.448;32.074;2022-10-01T14:02:44;21.90;75.00
52036;DHT22;38046;49.448;32.074;2022-10-01T14:10:38;21.90;75.30
52036;DHT22;38046;49.448;32.074;2022-10-01T14:13:27;21.80;75.50
52036;DHT22;38046;49.448;32.074;2022-10-01T14:16:11;21.80;75.70
52036;DHT22;38046;49.448;32.074;2022-10-01T14:18:41;21.80;75.80
52036;DHT22;38046;49.448;32.074;2022-10-01T14:24:07;21.70;75.90
52036;DHT22;38046;49.448;32.074;2022-10-01T14:26:47;21.70;76.00
52036;DHT22;38046;49.448;32.074;2022-10-01T14:37:07;21.60;76.50
52036;DHT22;38046;49.448;32.074;2022-10-01T14:39:35;21.60;76.60
52036;DHT22;38046;49.448;32.074;2022-10-01T14:42:08;21.60;76.80
52036;DHT22;38046;49.448;32.074;2022-10-01T14:44:40;21.50;76.90
52036;DHT22;38046;49.448;32.074;2022-10-01T14:47:23;21.50;77.00
52036;DHT22;38046;49.448;32.074;2022-10-01T14:49:50;21.50;77.00
52036;DHT22;38046;49.448;32.074;2022-10-01T14:52:28;21.50;77.20
52036;DHT22;38046;49.448;32.074;2022-10-01T14:57:37;21.40;77.30
52036;DHT22;38046;49.448;32.074;2022-10-01T15:00:15;21.30;77.40
52036;DHT22;38046;49.448;32.074;2022-10-01T15:02:46;21.30;77.60
52036;DHT22;38046;49.448;32.074;2022-10-01T15:05:26;21.30;77.70
52036;DHT22;38046;49.448;32.074;2022-10-01T15:07:52;21.20;77.80
52036;DHT22;38046;49.448;32.074;2022-10-01T15:10:20;21.20;78.00
52036;DHT22;38046;49.448;32.074;2022-10-01T15:12:50;21.10;78.10
52036;DHT22;38046;49.448;32.074;2022-10-01T15:15:19;21.00;78.20
52036;DHT22;38046;49.448;32.074;2022-10-01T15:17:46;21.00;78.30
52036;DHT22;38046;49.448;32.074;2022-10-01T15:20:12;20.90;78.40
52036;DHT22;38046;49.448;32.074;2022-10-01T15:22:38;20.90;78.60
52036;DHT22;38046;49.448;32.074;2022-10-01T15:25:05;20.80;78.60
52036;DHT22;38046;49.448;32.074;2022-10-01T15:27:32;20.80;78.80
52036;DHT22;38046;49.448;32.074;2022-10-01T15:29:58;20.80;79.00
52036;DHT22;38046;49.448;32.074;2022-10-01T15:32:25;20.70;78.90
52036;DHT22;38046;49.448;32.074;2022-10-01T15:34:54;20.70;79.00
52036;DHT22;38046;49.448;32.074;2022-10-01T15:37:35;20.60;79.00
52036;DHT22;38046;49.448;32.074;2022-10-01T15:40:03;20.60;79.10
52036;DHT22;38046;49.448;32.074;2022-10-01T15:42:32;20.50;79.70
52036;DHT22;38046;49.448;32.074;2022-10-01T15:55:44;20.30;78.70
52036;DHT22;38046;49.448;32.074;2022-10-01T15:58:26;20.30;78.80
52036;DHT22;38046;49.448;32.074;2022-10-01T16:01:16;20.30;78.90
52036;DHT22;38046;49.448;32.074;2022-10-01T16:03:52;20.20;78.90
52036;DHT22;38046;49.448;32.074;2022-10-01T16:06:26;20.20;79.10
52036;DHT22;38046;49.448;32.074;2022-10-01T16:11:24;20.10;79.30
52036;DHT22;38046;49.448;32.074;2022-10-01T16:22:31;20.00;79.50
52036;DHT22;38046;49.448;32.074;2022-10-01T16:25:01;20.00;79.60
52036;DHT22;38046;49.448;32.074;2022-10-01T16:27:33;20.00;79.60
52036;DHT22;38046;49.448;32.074;2022-10-01T16:32:27;20.00;79.70
52036;DHT22;38046;49.448;32.074;2022-10-01T16:37:41;20.00;79.90
52036;DHT22;38046;49.448;32.074;2022-10-01T16:40:07;19.90;80.00
52036;DHT22;38046;49.448;32.074;2022-10-01T16:42:33;19.90;80.30
52036;DHT22;38046;49.448;32.074;2022-10-01T16:45:02;19.90;80.40
52036;DHT22;38046;49.448;32.074;2022-10-01T16:47:28;19.80;80.50
52036;DHT22;38046;49.448;32.074;2022-10-01T16:49:54;19.80;80.60
52036;DHT22;38046;49.448;32.074;2022-10-01T16:52:20;19.80;80.80
52036;DHT22;38046;49.448;32.074;2022-10-01T16:54:45;19.80;80.80
52036;DHT22;38046;49.448;32.074;2022-10-01T16:57:13;19.70;80.80
52036;DHT22;38046;49.448;32.074;2022-10-01T16:59:40;19.80;81.10
52036;DHT22;38046;49.448;32.074;2022-10-01T17:02:13;19.70;81.20
52036;DHT22;38046;49.448;32.074;2022-10-01T17:04:39;19.70;81.10
52036;DHT22;38046;49.448;32.074;2022-10-01T17:07:05;19.70;81.40
52036;DHT22;38046;49.448;32.074;2022-10-01T17:09:30;19.70;81.50
52036;DHT22;38046;49.448;32.074;2022-10-01T17:11:56;19.60;81.60
52036;DHT22;38046;49.448;32.074;2022-10-01T17:14:22;19.60;81.80
52036;DHT22;38046;49.448;32.074;2022-10-01T17:16:48;19.60;81.90
52036;DHT22;38046;49.448;32.074;2022-10-01T17:19:15;19.60;82.10
52036;DHT22;38046;49.448;32.074;2022-10-01T17:21:41;19.50;82.10
52036;DHT22;38046;49.448;32.074;2022-10-01T17:24:07;19.50;82.30
52036;DHT22;38046;49.448;32.074;2022-10-01T17:26:40;19.40;82.30
52036;DHT22;38046;49.448;32.074;2022-10-01T17:29:07;19.40;82.60
52036;DHT22;38046;49.448;32.074;2022-10-01T17:31:38;19.40;82.80
52036;DHT22;38046;49.448;32.074;2022-10-01T17:34:06;19.40;82.80
52036;DHT22;38046;49.448;32.074;2022-10-01T17:36:32;19.40;83.00
52036;DHT22;38046;49.448;32.074;2022-10-01T17:39:00;19.30;83.00
52036;DHT22;38046;49.448;32.074;2022-10-01T17:41:26;19.30;83.20
52036;DHT22;38046;49.448;32.074;2022-10-01T17:43:52;19.30;83.40
52036;DHT22;38046;49.448;32.074;2022-10-01T17:46:17;19.30;83.50
52036;DHT22;38046;49.448;32.074;2022-10-01T17:48:46;19.30;83.80
52036;DHT22;38046;49.448;32.074;2022-10-01T17:51:12;19.30;83.90
52036;DHT22;38046;49.448;32.074;2022-10-01T17:53:40;19.20;84.00
52036;DHT22;38046;49.448;32.074;2022-10-01T17:56:08;19.20;84.10
52036;DHT22;38046;49.448;32.074;2022-10-01T17:58:34;19.20;84.30
52036;DHT22;38046;49.448;32.074;2022-10-01T18:01:01;19.20;84.50
52036;DHT22;38046;49.448;32.074;2022-10-01T18:03:27;19.20;84.60
52036;DHT22;38046;49.448;32.074;2022-10-01T18:06:02;19.20;84.50
52036;DHT22;38046;49.448;32.074;2022-10-01T18:08:28;19.20;84.70
52036;DHT22;38046;49.448;32.074;2022-10-01T18:11:05;19.10;84.90
52036;DHT22;38046;49.448;32.074;2022-10-01T18:13:32;19.10;85.10
52036;DHT22;38046;49.448;32.074;2022-10-01T18:16:00;19.10;85.20
52036;DHT22;38046;49.448;32.074;2022-10-01T18:18:25;19.10;85.20